createdAt,value
2017-06-05T00:00:25.212Z,91.07
2017-06-05T00:01:05.588Z,90.79
2017-06-05T00:01:45.973Z,90.79
2017-06-05T00:02:26.377Z,91.27
2017-06-05T00:03:06.840Z,91.17
2017-06-05T00:03:47.238Z,91.27
2017-06-05T00:04:27.683Z,91.07
2017-06-05T00:05:08.098Z,91.17
2017-06-05T00:05:48.505Z,91.17
2017-06-05T00:06:28.946Z,91.17
2017-06-05T00:07:09.330Z,91.17
2017-06-05T00:07:49.692Z,91.07
2017-06-05T00:08:30.087Z,91.27
2017-06-05T00:09:10.495Z,91.27
2017-06-05T00:11:31.836Z,91.17
2017-06-05T00:12:12.608Z,90.98
2017-06-05T00:12:53.040Z,91.17
2017-06-05T00:13:33.508Z,91.36
2017-06-05T00:14:13.871Z,91.27
2017-06-05T00:14:54.297Z,91.27
2017-06-05T00:15:34.727Z,91.27
2017-06-05T00:16:15.148Z,91.27
2017-06-05T00:16:55.544Z,91.27
2017-06-05T00:17:35.998Z,91.17
2017-06-05T00:18:16.425Z,90.88
2017-06-05T00:18:56.827Z,90.79
2017-06-05T00:19:37.248Z,91.17
2017-06-05T00:20:17.669Z,91.74
2017-06-05T00:20:58.115Z,91.74
2017-06-05T00:21:38.433Z,90.79
2017-06-05T00:22:18.828Z,90.98
2017-06-05T00:22:59.213Z,90.98
2017-06-05T00:23:39.783Z,91.17
2017-06-05T00:24:20.196Z,91.17
2017-06-05T00:25:00.679Z,91.74
2017-06-05T00:25:41.092Z,91.64
2017-06-05T00:26:21.548Z,91.83
2017-06-05T00:27:01.904Z,91.46
2017-06-05T00:27:42.347Z,91.55
2017-06-05T00:28:22.707Z,91.74
2017-06-05T00:29:03.143Z,91.83
2017-06-05T00:29:43.524Z,92.03
2017-06-05T00:30:23.991Z,91.93
2017-06-05T00:31:04.389Z,91.83
2017-06-05T00:31:44.740Z,91.93
2017-06-05T00:32:25.181Z,91.64
2017-06-05T00:33:05.637Z,91.64
2017-06-05T00:33:45.958Z,91.74
2017-06-05T00:34:26.371Z,91.36
2017-06-05T00:35:06.779Z,91.55
2017-06-05T00:35:47.163Z,92.03
2017-06-05T00:36:27.625Z,92.22
2017-06-05T00:37:08.064Z,92.12
2017-06-05T00:37:48.447Z,92.03
2017-06-05T00:38:28.874Z,92.41
2017-06-05T00:39:09.256Z,92.41
2017-06-05T00:39:49.693Z,92.22
2017-06-05T00:40:30.041Z,92.32
2017-06-05T00:41:10.468Z,92.41
2017-06-05T00:41:50.834Z,92.41
2017-06-05T00:42:31.239Z,92.32
2017-06-05T00:43:11.653Z,92.6
2017-06-05T00:43:52.069Z,92.88
2017-06-05T00:44:32.485Z,92.79
2017-06-05T00:45:12.873Z,92.88
2017-06-05T00:45:53.323Z,92.88
2017-06-05T00:46:33.732Z,92.79
2017-06-05T00:47:14.175Z,92.79
2017-06-05T00:47:54.567Z,92.88
2017-06-05T00:48:34.990Z,92.79
2017-06-05T00:49:15.356Z,92.69
2017-06-05T00:49:55.705Z,92.79
2017-06-05T00:50:36.159Z,92.88
2017-06-05T00:51:16.636Z,92.69
2017-06-05T00:51:57.060Z,92.69
2017-06-05T00:52:37.404Z,92.79
2017-06-05T00:53:17.866Z,92.69
2017-06-05T00:53:58.251Z,92.69
2017-06-05T00:54:38.646Z,92.5
2017-06-05T00:55:19.048Z,92.6
2017-06-05T00:55:59.426Z,92.88
2017-06-05T00:56:39.847Z,92.5
2017-06-05T00:57:20.293Z,93.36
2017-06-05T00:58:00.680Z,93.08
2017-06-05T00:58:41.083Z,93.08
2017-06-05T00:59:21.533Z,93.17
2017-06-05T01:00:01.953Z,93.17
2017-06-05T01:00:42.362Z,92.88
2017-06-05T01:01:22.720Z,92.88
2017-06-05T01:02:03.202Z,93.08
2017-06-05T01:02:43.614Z,92.98
2017-06-05T01:03:24.023Z,93.08
2017-06-05T01:04:04.398Z,93.12
2017-06-05T01:04:44.764Z,92.88
2017-06-05T01:05:25.281Z,92.6
2017-06-05T01:06:05.624Z,92.6
2017-06-05T01:06:45.998Z,92.98
2017-06-05T01:07:26.403Z,93.22
2017-06-05T01:08:06.892Z,92.74
2017-06-05T01:08:47.297Z,93.02
2017-06-05T01:09:27.678Z,93.02
2017-06-05T01:10:08.095Z,92.88
2017-06-05T01:10:48.542Z,92.65
2017-06-05T01:11:28.882Z,92.93
2017-06-05T01:12:09.308Z,92.83
2017-06-05T01:12:49.723Z,93.51
2017-06-05T01:13:30.241Z,93.12
2017-06-05T01:14:10.621Z,93.51
2017-06-05T01:14:51.086Z,92.83
2017-06-05T01:15:31.404Z,93.02
2017-06-05T01:16:11.829Z,92.93
2017-06-05T01:16:52.205Z,93.02
2017-06-05T01:17:32.653Z,93.12
2017-06-05T01:18:13.056Z,93.6
2017-06-05T01:18:53.440Z,93.31
2017-06-05T01:19:33.859Z,93.12
2017-06-05T01:20:14.272Z,93.12
2017-06-05T01:20:54.699Z,93.31
2017-06-05T01:21:35.106Z,93.41
2017-06-05T01:22:15.482Z,93.41
2017-06-05T01:22:55.936Z,93.7
2017-06-05T01:23:36.332Z,93.51
2017-06-05T01:24:17.395Z,93.31
2017-06-05T01:24:57.129Z,93.31
2017-06-05T01:25:37.562Z,93.12
2017-06-05T01:26:17.938Z,93.41
2017-06-05T01:26:58.304Z,93.51
2017-06-05T01:27:38.739Z,93.31
2017-06-05T01:28:19.091Z,93.51
2017-06-05T01:28:59.571Z,93.41
2017-06-05T01:29:39.961Z,93.31
2017-06-05T01:30:20.379Z,93.79
2017-06-05T01:31:00.771Z,93.51
2017-06-05T01:31:41.232Z,93.6
2017-06-05T01:32:21.650Z,93.7
2017-06-05T01:33:02.037Z,93.79
2017-06-05T01:33:42.472Z,93.7
2017-06-05T01:34:22.908Z,94.07
2017-06-05T01:35:03.282Z,94.17
2017-06-05T01:35:43.657Z,94.36
2017-06-05T01:36:24.167Z,94.56
2017-06-05T01:37:04.502Z,94.36
2017-06-05T01:37:44.965Z,94.17
2017-06-05T01:38:25.341Z,94.27
2017-06-05T01:39:05.775Z,94.36
2017-06-05T01:39:46.221Z,94.07
2017-06-05T01:40:26.594Z,94.36
2017-06-05T01:41:06.931Z,94.17
2017-06-05T01:41:47.359Z,94.07
2017-06-05T01:42:27.794Z,94.27
2017-06-05T01:43:08.176Z,94.56
2017-06-05T01:43:48.610Z,94.6
2017-06-05T01:44:29.003Z,94.56
2017-06-05T01:45:09.450Z,94.12
2017-06-05T01:45:49.843Z,94.6
2017-06-05T01:46:30.262Z,94.7
2017-06-05T01:47:10.754Z,94.6
2017-06-05T01:47:51.601Z,94.51
2017-06-05T01:48:32.036Z,94.12
2017-06-05T01:49:12.429Z,94.22
2017-06-05T01:49:52.906Z,94.31
2017-06-05T01:50:33.357Z,94.12
2017-06-05T01:51:13.745Z,94.22
2017-06-05T01:51:54.175Z,94.22
2017-06-05T01:52:34.889Z,94.12
2017-06-05T01:53:15.293Z,94.12
2017-06-05T01:53:55.663Z,94.31
2017-06-05T01:54:36.077Z,94.31
2017-06-05T01:55:16.540Z,94.41
2017-06-05T01:55:56.893Z,94.51
2017-06-05T01:56:37.336Z,94.41
2017-06-05T01:57:17.746Z,94.31
2017-06-05T01:57:58.193Z,94.41
2017-06-05T01:58:38.587Z,94.31
2017-06-05T01:59:19.022Z,94.31
2017-06-05T01:59:59.437Z,94.51
2017-06-05T02:00:39.892Z,94.41
2017-06-05T02:01:20.254Z,94.22
2017-06-05T02:02:00.717Z,94.31
2017-06-05T02:02:41.127Z,94.51
2017-06-05T02:03:21.633Z,94.31
2017-06-05T02:04:02.067Z,94.41
2017-06-05T02:04:42.446Z,94.31
2017-06-05T02:05:23.020Z,94.27
2017-06-05T02:06:03.425Z,94.27
2017-06-05T02:06:43.824Z,94.46
2017-06-05T02:07:24.292Z,94.17
2017-06-05T02:08:04.683Z,93.98
2017-06-05T02:08:45.137Z,94.27
2017-06-05T02:09:25.682Z,93.88
2017-06-05T02:10:06.018Z,93.88
2017-06-05T02:10:46.503Z,94.27
2017-06-05T02:11:26.878Z,93.88
2017-06-05T02:12:07.256Z,94.27
2017-06-05T02:12:47.685Z,94.46
2017-06-05T02:13:28.098Z,94.27
2017-06-05T02:14:08.532Z,93.79
2017-06-05T02:14:48.923Z,93.79
2017-06-05T02:15:29.377Z,93.7
2017-06-05T02:16:09.755Z,93.98
2017-06-05T02:16:50.176Z,93.6
2017-06-05T02:17:30.606Z,94.07
2017-06-05T02:18:11.000Z,94.27
2017-06-05T02:18:51.481Z,93.5
2017-06-05T02:19:31.870Z,93.79
2017-06-05T02:20:12.308Z,93.31
2017-06-05T02:20:52.675Z,93.5
2017-06-05T02:21:33.115Z,93.02
2017-06-05T02:22:13.538Z,93.5
2017-06-05T02:22:53.964Z,93.5
2017-06-05T02:23:34.330Z,93.6
2017-06-05T02:24:14.769Z,93.41
2017-06-05T02:24:55.159Z,93.41
2017-06-05T02:25:35.666Z,93.7
2017-06-05T02:26:16.068Z,93.6
2017-06-05T02:26:56.481Z,93.79
2017-06-05T02:27:36.893Z,93.36
2017-06-05T02:28:17.306Z,93.84
2017-06-05T02:28:57.713Z,93.55
2017-06-05T02:29:38.130Z,93.74
2017-06-05T02:30:18.560Z,93.74
2017-06-05T02:30:58.971Z,93.74
2017-06-05T02:31:39.368Z,93.84
2017-06-05T02:32:19.778Z,93.74
2017-06-05T02:33:00.213Z,94.22
2017-06-05T02:33:40.579Z,94.03
2017-06-05T02:34:21.024Z,94.12
2017-06-05T02:35:01.434Z,94.31
2017-06-05T02:35:41.840Z,94.6
2017-06-05T02:36:22.227Z,94.31
2017-06-05T02:37:02.672Z,94.22
2017-06-05T02:37:43.073Z,94.22
2017-06-05T02:38:23.457Z,94.22
2017-06-05T02:39:03.896Z,94.31
2017-06-05T02:39:44.299Z,94.12
2017-06-05T02:40:24.765Z,94.12
2017-06-05T02:41:05.140Z,94.12
2017-06-05T02:41:45.543Z,94.12
2017-06-05T02:42:25.944Z,94.31
2017-06-05T02:43:06.344Z,94.7
2017-06-05T02:43:46.768Z,94.51
2017-06-05T02:44:27.172Z,94.7
2017-06-05T02:45:07.636Z,94.41
2017-06-05T02:47:00.857Z,94.89
2017-06-05T02:47:41.426Z,94.79
2017-06-05T02:48:21.826Z,94.41
2017-06-05T02:49:02.264Z,94.7
2017-06-05T02:49:42.637Z,94.6
2017-06-05T02:50:23.010Z,95.08
2017-06-05T02:51:03.390Z,94.79
2017-06-05T02:51:43.823Z,94.93
2017-06-05T02:52:24.293Z,94.6
2017-06-05T02:53:04.680Z,94.84
2017-06-05T02:53:45.129Z,94.84
2017-06-05T02:54:25.497Z,94.74
2017-06-05T02:55:05.884Z,95.61
2017-06-05T02:55:46.255Z,94.36
2017-06-05T02:56:26.729Z,94.27
2017-06-05T02:57:07.129Z,95.41
2017-06-05T02:57:47.501Z,95.12
2017-06-05T02:58:28.299Z,94.84
2017-06-05T02:59:08.801Z,94.84
2017-06-05T02:59:49.693Z,94.56
2017-06-05T03:00:30.195Z,94.56
2017-06-05T03:01:10.779Z,94.74
2017-06-05T03:01:51.152Z,94.65
2017-06-05T03:02:31.555Z,94.74
2017-06-05T03:03:12.050Z,94.65
2017-06-05T03:03:52.474Z,94.93
2017-06-05T03:04:32.961Z,95.22
2017-06-05T03:05:13.360Z,95.03
2017-06-05T03:05:53.856Z,95.41
2017-06-05T03:06:34.958Z,95.61
2017-06-05T03:07:15.321Z,95.22
2017-06-05T03:07:55.763Z,95.7
2017-06-05T03:08:36.232Z,95.22
2017-06-05T03:09:16.967Z,95.22
2017-06-05T03:09:57.374Z,95.51
2017-06-05T03:10:37.889Z,95.41
2017-06-05T03:11:18.257Z,95.12
2017-06-05T03:11:58.700Z,95.22
2017-06-05T03:12:39.091Z,95.51
2017-06-05T03:13:19.466Z,95.32
2017-06-05T03:13:59.872Z,95.61
2017-06-05T03:14:40.233Z,95.79
2017-06-05T03:15:20.717Z,95.7
2017-06-05T03:16:01.357Z,95.51
2017-06-05T03:16:41.681Z,95.22
2017-06-05T03:17:22.701Z,95.41
2017-06-05T03:18:03.144Z,95.32
2017-06-05T03:18:43.669Z,95.7
2017-06-05T03:19:24.122Z,95.79
2017-06-05T03:20:04.570Z,95.41
2017-06-05T03:20:44.942Z,95.41
2017-06-05T03:21:25.377Z,95.22
2017-06-05T03:22:05.781Z,95.41
2017-06-05T03:22:46.291Z,95.51
2017-06-05T03:23:26.661Z,95.61
2017-06-05T03:24:07.136Z,95.89
2017-06-05T03:24:47.536Z,95.98
2017-06-05T03:25:27.969Z,96.08
2017-06-05T03:26:08.333Z,95.7
2017-06-05T03:26:48.768Z,96.08
2017-06-05T03:27:29.126Z,95.98
2017-06-05T03:28:09.808Z,95.61
2017-06-05T03:28:50.200Z,95.98
2017-06-05T03:29:30.582Z,95.89
2017-06-05T03:30:11.001Z,95.98
2017-06-05T03:30:51.522Z,96.08
2017-06-05T03:31:31.861Z,95.98
2017-06-05T03:32:12.278Z,95.89
2017-06-05T03:32:52.701Z,95.79
2017-06-05T03:33:33.070Z,95.98
2017-06-05T03:34:13.534Z,95.89
2017-06-05T03:34:53.943Z,95.79
2017-06-05T03:35:34.766Z,95.61
2017-06-05T03:36:15.242Z,95.7
2017-06-05T03:36:55.663Z,95.98
2017-06-05T03:37:36.106Z,95.89
2017-06-05T03:38:16.520Z,95.61
2017-06-05T03:38:56.933Z,96.27
2017-06-05T03:39:37.328Z,96.27
2017-06-05T03:40:17.745Z,96.17
2017-06-05T03:40:58.538Z,95.98
2017-06-05T03:41:38.986Z,95.89
2017-06-05T03:42:19.432Z,96.08
2017-06-05T03:42:59.901Z,95.98
2017-06-05T03:43:40.328Z,95.89
2017-06-05T03:44:20.740Z,95.79
2017-06-05T03:45:01.614Z,95.98
2017-06-05T03:45:41.977Z,95.89
2017-06-05T03:46:22.612Z,96.17
2017-06-05T03:47:03.432Z,95.98
2017-06-05T03:47:43.822Z,96.17
2017-06-05T03:48:24.817Z,95.98
2017-06-05T03:49:05.274Z,96.56
2017-06-05T03:49:45.673Z,96.17
2017-06-05T03:50:26.097Z,96.37
2017-06-05T03:51:06.465Z,96.27
2017-06-05T03:51:46.906Z,96.46
2017-06-05T03:52:27.368Z,95.98
2017-06-05T03:53:10.602Z,96.08
2017-06-05T03:53:51.492Z,95.89
2017-06-05T03:54:31.840Z,95.89
2017-06-05T03:55:12.303Z,96.75
2017-06-05T03:55:52.695Z,96.08
2017-06-05T03:56:33.117Z,96.27
2017-06-05T03:57:14.425Z,95.98
2017-06-05T03:57:54.856Z,96.27
2017-06-05T03:58:35.263Z,95.98
2017-06-05T03:59:15.682Z,96.37
2017-06-05T03:59:57.149Z,96.37
2017-06-05T04:00:38.606Z,96.56
2017-06-05T04:01:19.500Z,96.27
2017-06-05T04:02:00.262Z,96.46
2017-06-05T04:04:18.806Z,96.7
2017-06-05T04:04:59.168Z,96.7
2017-06-05T04:05:40.084Z,96.51
2017-06-05T04:06:20.777Z,96.32
2017-06-05T04:07:01.160Z,96.51
2017-06-05T04:07:41.587Z,96.51
2017-06-05T04:08:22.044Z,96.51
2017-06-05T04:09:02.414Z,96.32
2017-06-05T04:09:43.089Z,96.42
2017-06-05T04:10:23.576Z,96.51
2017-06-05T04:11:04.525Z,96.61
2017-06-05T04:11:44.940Z,96.61
2017-06-05T04:12:25.360Z,96.51
2017-06-05T04:13:05.766Z,96.51
2017-06-05T04:13:46.162Z,96.51
2017-06-05T04:14:26.679Z,96.42
2017-06-05T04:15:07.082Z,96.7
2017-06-05T04:15:47.548Z,96.22
2017-06-05T04:16:27.975Z,96.37
2017-06-05T04:17:08.394Z,95.98
2017-06-05T04:17:48.815Z,96.17
2017-06-05T04:18:29.322Z,96.84
2017-06-05T04:19:09.663Z,96.46
2017-06-05T04:19:50.086Z,96.37
2017-06-05T04:20:30.500Z,96.46
2017-06-05T04:21:11.150Z,96.66
2017-06-05T04:21:52.006Z,96.56
2017-06-05T04:22:33.309Z,96.46
2017-06-05T04:23:13.326Z,96.56
2017-06-05T04:23:53.758Z,96.56
2017-06-05T04:24:34.137Z,96.56
2017-06-05T04:25:14.526Z,96.27
2017-06-05T04:25:54.961Z,96.75
2017-06-05T04:26:35.403Z,96.27
2017-06-05T04:27:15.798Z,96.17
2017-06-05T04:27:56.208Z,96.08
2017-06-05T04:28:36.666Z,96.17
2017-06-05T04:29:17.073Z,96.37
2017-06-05T04:29:57.527Z,96.17
2017-06-05T04:30:37.909Z,96.27
2017-06-05T04:31:18.333Z,96.37
2017-06-05T04:31:58.729Z,96.8
2017-06-05T04:32:39.110Z,96.8
2017-06-05T04:33:19.549Z,96.61
2017-06-05T04:33:59.972Z,96.51
2017-06-05T04:34:40.394Z,96.61
2017-06-05T04:35:20.779Z,96.61
2017-06-05T04:36:01.230Z,96.03
2017-06-05T04:36:41.623Z,96.13
2017-06-05T04:37:22.069Z,96.42
2017-06-05T04:38:02.515Z,96.32
2017-06-05T04:38:43.117Z,96.32
2017-06-05T04:39:23.477Z,96.37
2017-06-05T04:40:03.945Z,96.18
2017-06-05T04:40:44.373Z,96.47
2017-06-05T04:41:24.753Z,96.56
2017-06-05T04:42:05.145Z,96.56
2017-06-05T04:42:45.585Z,96.56
2017-06-05T04:43:25.977Z,96.37
2017-06-05T04:44:06.391Z,96.47
2017-06-05T04:44:46.821Z,96.27
2017-06-05T04:45:27.297Z,95.94
2017-06-05T04:46:07.681Z,96.22
2017-06-05T04:46:48.046Z,96.03
2017-06-05T04:47:28.479Z,96.13
2017-06-05T04:48:08.876Z,95.94
2017-06-05T04:48:49.327Z,95.36
2017-06-05T04:49:29.744Z,95.75
2017-06-05T04:50:10.120Z,96.08
2017-06-05T04:50:51.289Z,95.89
2017-06-05T04:51:31.739Z,95.89
2017-06-05T04:52:12.167Z,95.61
2017-06-05T04:52:52.583Z,95.41
2017-06-05T04:53:33.217Z,95.22
2017-06-05T04:54:13.506Z,95.12
2017-06-05T04:54:53.890Z,95.03
2017-06-05T04:55:34.298Z,95.12
2017-06-05T04:56:14.732Z,95.17
2017-06-05T04:56:55.181Z,94.6
2017-06-05T04:57:35.585Z,94.79
2017-06-05T04:58:16.010Z,95.03
2017-06-05T04:58:56.361Z,95.07
2017-06-05T04:59:36.740Z,94.98
2017-06-05T05:00:17.140Z,95.27
2017-06-05T05:00:58.198Z,94.98
2017-06-05T05:01:38.556Z,94.89
2017-06-05T05:02:19.008Z,94.98
2017-06-05T05:02:59.465Z,94.93
2017-06-05T05:03:39.846Z,95.03
2017-06-05T05:04:20.249Z,94.84
2017-06-05T05:05:00.668Z,94.84
2017-06-05T05:05:41.081Z,94.45
2017-06-05T05:06:21.492Z,94.64
2017-06-05T05:07:01.933Z,94.55
2017-06-05T05:07:42.377Z,94.74
2017-06-05T05:08:22.781Z,94.07
2017-06-05T05:09:03.204Z,94.74
2017-06-05T05:09:43.571Z,93.98
2017-06-05T05:10:24.002Z,94.17
2017-06-05T05:11:04.426Z,94.26
2017-06-05T05:11:44.811Z,94.26
2017-06-05T05:12:25.187Z,94.07
2017-06-05T05:13:05.584Z,93.63
2017-06-05T05:13:45.982Z,93.83
2017-06-05T05:14:26.415Z,93.73
2017-06-05T05:15:06.813Z,93.73
2017-06-05T05:15:47.235Z,93.16
2017-06-05T05:16:27.665Z,93.35
2017-06-05T05:17:08.061Z,92.87
2017-06-05T05:17:48.479Z,92.87
2017-06-05T05:18:28.917Z,92.97
2017-06-05T05:19:09.354Z,92.97
2017-06-05T05:19:49.759Z,92.87
2017-06-05T05:20:30.167Z,92.49
2017-06-05T05:21:10.564Z,92.68
2017-06-05T05:21:51.005Z,92.68
2017-06-05T05:22:31.451Z,92.01
2017-06-05T05:23:11.892Z,92.01
2017-06-05T05:23:52.304Z,92.01
2017-06-05T05:24:32.685Z,92.49
2017-06-05T05:25:13.133Z,92.77
2017-06-05T05:25:53.677Z,92.87
2017-06-05T05:26:34.076Z,92.68
2017-06-05T05:27:14.490Z,92.68
2017-06-05T05:27:54.914Z,92.49
2017-06-05T05:28:35.298Z,92.01
2017-06-05T05:29:17.899Z,92.2
2017-06-05T05:30:01.495Z,92.49
2017-06-05T05:30:42.508Z,92.34
2017-06-05T05:31:23.921Z,91.96
2017-06-05T05:32:04.325Z,92.24
2017-06-05T05:32:44.734Z,92.54
2017-06-05T05:33:25.189Z,91.57
2017-06-05T05:34:05.653Z,92.05
2017-06-05T05:34:46.001Z,91.67
2017-06-05T05:35:26.413Z,91.57
2017-06-05T05:36:06.761Z,91.57
2017-06-05T05:36:47.186Z,91.57
2017-06-05T05:37:27.590Z,90.9
2017-06-05T05:38:07.985Z,91.38
2017-06-05T05:38:48.425Z,91
2017-06-05T05:39:28.857Z,90.81
2017-06-05T05:40:09.246Z,90.71
2017-06-05T05:40:49.639Z,90.9
2017-06-05T05:41:30.058Z,91
2017-06-05T05:42:10.433Z,90.52
2017-06-05T05:42:50.921Z,90.33
2017-06-05T05:43:31.275Z,90.81
2017-06-05T05:44:11.853Z,90.81
2017-06-05T05:44:52.299Z,90.81
2017-06-05T05:45:32.682Z,90.33
2017-06-05T05:46:13.056Z,90.61
2017-06-05T05:46:53.501Z,90.42
2017-06-05T05:47:33.961Z,90.81
2017-06-05T05:48:14.327Z,90.18
2017-06-05T05:48:54.726Z,90.37
2017-06-05T05:49:35.178Z,89.89
2017-06-05T05:50:15.559Z,90.28
2017-06-05T05:50:55.959Z,90.08
2017-06-05T05:51:36.329Z,89.51
2017-06-05T05:52:18.445Z,89.51
2017-06-05T05:52:58.885Z,89.22
2017-06-05T05:53:39.230Z,89.12
2017-06-05T05:54:19.651Z,89.22
2017-06-05T05:55:00.064Z,89.26
2017-06-05T05:55:40.487Z,89.17
2017-06-05T05:56:20.878Z,88.79
2017-06-05T05:57:01.296Z,88.49
2017-06-05T05:57:41.692Z,88.21
2017-06-05T05:58:22.107Z,88.02
2017-06-05T05:59:02.516Z,87.96
2017-06-05T05:59:42.947Z,87.49
2017-06-05T06:00:23.302Z,87.39
2017-06-05T06:01:03.750Z,87.19
2017-06-05T06:01:44.141Z,86.81
2017-06-05T06:02:25.173Z,86.91
2017-06-05T06:03:06.112Z,86.91
2017-06-05T06:03:47.127Z,87.01
2017-06-05T06:04:27.631Z,87.01
2017-06-05T06:05:07.948Z,86.91
2017-06-05T06:05:48.409Z,86.91
2017-06-05T06:06:28.779Z,86.91
2017-06-05T06:07:10.196Z,86.43
2017-06-05T06:07:50.632Z,86.52
2017-06-05T06:08:31.049Z,86.43
2017-06-05T06:09:11.482Z,86.62
2017-06-05T06:09:51.890Z,86.62
2017-06-05T06:10:32.326Z,86.24
2017-06-05T06:11:15.125Z,86.81
2017-06-05T06:13:17.480Z,86.81
2017-06-05T06:14:03.127Z,86.33
2017-06-05T06:14:49.235Z,86.14
2017-06-05T06:15:29.090Z,86.14
2017-06-05T06:16:09.736Z,86.33
2017-06-05T06:16:49.961Z,85.95
2017-06-05T06:17:30.341Z,85.95
2017-06-05T06:18:10.769Z,85.95
2017-06-05T06:18:51.211Z,86.14
2017-06-05T06:19:31.681Z,86.14
2017-06-05T06:20:12.085Z,86.19
2017-06-05T06:20:52.430Z,85.95
2017-06-05T06:21:32.856Z,86.05
2017-06-05T06:22:13.249Z,86.24
2017-06-05T06:22:53.692Z,86.14
2017-06-05T06:23:34.122Z,85.85
2017-06-05T06:24:14.525Z,85.75
2017-06-05T06:24:54.959Z,85.47
2017-06-05T06:25:35.315Z,85.32
2017-06-05T06:26:15.737Z,85.41
2017-06-05T06:26:56.135Z,85.13
2017-06-05T06:27:36.544Z,85.03
2017-06-05T06:28:17.001Z,84.26
2017-06-05T06:28:57.399Z,83.78
2017-06-05T06:29:37.859Z,83.83
2017-06-05T06:30:18.234Z,83.92
2017-06-05T06:30:58.692Z,83.25
2017-06-05T06:31:39.262Z,82.96
2017-06-05T06:32:19.704Z,83.06
2017-06-05T06:33:00.183Z,83.15
2017-06-05T06:33:41.036Z,82.67
2017-06-05T06:34:21.323Z,82.38
2017-06-05T06:35:01.830Z,82.23
2017-06-05T06:35:42.194Z,82.32
2017-06-05T06:36:22.682Z,81.37
2017-06-05T06:37:03.139Z,80.98
2017-06-05T06:37:43.557Z,80.21
2017-06-05T06:38:23.979Z,80.02
2017-06-05T06:39:05.995Z,80.21
2017-06-05T06:39:46.409Z,80.44
2017-06-05T06:40:28.354Z,80.44
2017-06-05T06:41:08.887Z,80.25
2017-06-05T06:41:49.281Z,80.15
2017-06-05T06:42:29.637Z,80.06
2017-06-05T06:43:10.020Z,80
2017-06-05T06:43:51.421Z,80.38
2017-06-05T06:44:31.845Z,79.43
2017-06-05T06:45:13.274Z,79.23
2017-06-05T06:45:57.444Z,79.52
2017-06-05T06:46:40.380Z,79.33
2017-06-05T06:47:20.811Z,78.75
2017-06-05T06:48:01.207Z,78.75
2017-06-05T06:48:41.669Z,78.88
2017-06-05T06:49:22.216Z,78.31
2017-06-05T06:50:02.625Z,78.69
2017-06-05T06:50:43.435Z,78.5
2017-06-05T06:51:25.926Z,78.4
2017-06-05T06:52:08.028Z,78.11
2017-06-05T06:52:49.236Z,77.63
2017-06-05T06:53:30.453Z,77.58
2017-06-05T06:54:10.885Z,77.09
2017-06-05T06:54:51.393Z,76.9
2017-06-05T06:55:31.817Z,76.51
2017-06-05T06:56:12.240Z,76.23
2017-06-05T06:56:52.639Z,76.61
2017-06-05T06:57:33.627Z,76.03
2017-06-05T06:58:14.580Z,75.74
2017-06-05T06:58:54.998Z,75.49
2017-06-05T06:59:36.097Z,75.4
2017-06-05T07:00:17.203Z,75.78
2017-06-05T07:00:57.571Z,75.59
2017-06-05T07:01:37.928Z,74.91
2017-06-05T07:02:18.419Z,75.4
2017-06-05T07:02:59.833Z,74.95
2017-06-05T07:03:40.243Z,74.76
2017-06-05T07:04:23.453Z,74.08
2017-06-05T07:05:03.894Z,74.08
2017-06-05T07:05:44.278Z,74.27
2017-06-05T07:06:24.719Z,73.73
2017-06-05T07:07:05.082Z,73.41
2017-06-05T07:07:45.492Z,73.21
2017-06-05T07:08:25.960Z,73.31
2017-06-05T07:09:06.429Z,73.31
2017-06-05T07:09:46.857Z,73.41
2017-06-05T07:10:27.277Z,73.31
2017-06-05T07:11:07.656Z,73.31
2017-06-05T07:11:48.108Z,73.25
2017-06-05T07:12:28.480Z,73.35
2017-06-05T07:13:08.908Z,73.83
2017-06-05T07:13:49.267Z,73.77
2017-06-05T07:14:29.721Z,73.03
2017-06-05T07:15:10.065Z,72.16
2017-06-05T07:15:50.563Z,71.42
2017-06-05T07:16:30.901Z,71.26
2017-06-05T07:17:11.344Z,70.24
2017-06-05T07:17:51.833Z,69.73
2017-06-05T07:18:32.206Z,68.6
2017-06-05T07:19:12.590Z,67.57
2017-06-05T07:19:53.435Z,65.98
2017-06-05T07:20:33.806Z,64.85
2017-06-05T07:21:14.246Z,63.62
2017-06-05T07:21:54.615Z,63.36
2017-06-05T07:22:35.069Z,62.71
2017-06-05T07:23:15.442Z,61.57
2017-06-05T07:23:55.906Z,61.11
2017-06-05T07:24:36.288Z,60.36
2017-06-05T07:25:17.621Z,58.74
2017-06-05T07:25:58.021Z,58.35
2017-06-05T07:26:38.445Z,58.09
2017-06-05T07:27:18.890Z,58.4
2017-06-05T07:27:59.346Z,57.36
2017-06-05T07:28:39.719Z,56.38
2017-06-05T07:29:20.376Z,55.15
2017-06-05T07:30:01.302Z,54.3
2017-06-05T07:30:41.552Z,54.49
2017-06-05T07:31:22.190Z,53.44
2017-06-05T07:32:02.638Z,53.27
2017-06-05T07:32:43.248Z,52.98
2017-06-05T07:33:24.006Z,52.71
2017-06-05T07:34:04.456Z,52.71
2017-06-05T07:34:44.898Z,52.15
2017-06-05T07:35:25.341Z,52.34
2017-06-05T07:36:07.582Z,51.88
2017-06-05T07:36:48.038Z,51.2
2017-06-05T07:37:28.475Z,51.2
2017-06-05T07:38:08.830Z,51.1
2017-06-05T07:38:49.250Z,51.1
2017-06-05T07:39:29.644Z,51
2017-06-05T07:40:10.064Z,49.95
2017-06-05T07:40:51.310Z,48.97
2017-06-05T07:41:31.281Z,47.67
2017-06-05T07:42:11.662Z,46.67
2017-06-05T07:42:52.110Z,47.16
2017-06-05T07:43:32.591Z,46.37
2017-06-05T07:44:13.316Z,44.98
2017-06-05T07:44:53.481Z,44.09
2017-06-05T07:45:33.881Z,44.55
2017-06-05T07:46:14.462Z,44.24
2017-06-05T07:46:56.022Z,43.75
2017-06-05T07:47:36.440Z,44.31
2017-06-05T07:48:17.232Z,44.51
2017-06-05T07:48:57.659Z,44.7
2017-06-05T07:49:38.201Z,44.41
2017-06-05T07:50:19.035Z,44.31
2017-06-05T07:50:59.418Z,43.8
2017-06-05T07:51:40.083Z,43.99
2017-06-05T07:52:21.924Z,44.09
2017-06-05T07:53:02.485Z,44.68
2017-06-05T07:53:43.040Z,44.87
2017-06-05T07:54:23.530Z,45.17
2017-06-05T07:55:04.577Z,44.19
2017-06-05T07:55:45.109Z,44.29
2017-06-05T07:56:27.937Z,44.68
2017-06-05T07:57:08.455Z,44.38
2017-06-05T07:57:49.028Z,43.63
2017-06-05T07:58:29.599Z,42.75
2017-06-05T07:59:10.406Z,42.24
2017-06-05T07:59:51.889Z,42.24
2017-06-05T08:00:36.528Z,42.24
2017-06-05T08:01:18.113Z,42.63
2017-06-05T08:02:00.187Z,42.65
2017-06-05T08:02:40.431Z,42.26
2017-06-05T08:03:22.094Z,42.36
2017-06-05T08:04:05.297Z,41.87
2017-06-05T08:04:48.274Z,41.38
2017-06-05T08:05:29.594Z,40.97
2017-06-05T08:06:15.505Z,41.07
2017-06-05T08:06:55.933Z,41.46
2017-06-05T08:07:37.572Z,41.66
2017-06-05T08:08:17.974Z,41.46
2017-06-05T08:09:00.488Z,41.56
2017-06-05T08:09:40.356Z,41.46
2017-06-05T08:10:21.967Z,41.66
2017-06-05T08:11:05.166Z,41.46
2017-06-05T08:11:57.299Z,41.38
2017-06-05T08:12:37.741Z,40.82
2017-06-05T08:13:19.131Z,40.53
2017-06-05T08:15:58.348Z,38.98
2017-06-05T08:16:46.811Z,38.4
2017-06-05T08:17:32.681Z,38.9
2017-06-05T08:18:12.405Z,38.51
2017-06-05T08:18:52.947Z,38.12
2017-06-05T08:19:33.345Z,38.02
2017-06-05T08:20:14.058Z,38.14
2017-06-05T08:22:06.087Z,37.21
2017-06-05T08:22:55.716Z,36.65
2017-06-05T08:23:44.572Z,36.08
2017-06-05T08:24:32.443Z,35.13
2017-06-05T08:25:21.829Z,34.85
2017-06-05T08:26:10.600Z,34.28
2017-06-05T08:26:59.448Z,33.62
2017-06-05T08:27:46.929Z,33.25
2017-06-05T08:28:34.563Z,32.76
2017-06-05T08:29:21.584Z,32.59
2017-06-05T08:30:01.562Z,32.59
2017-06-05T08:30:42.005Z,32.31
2017-06-05T08:31:22.429Z,32.23
2017-06-05T08:32:03.506Z,31.16
2017-06-05T08:32:43.928Z,30.96
2017-06-05T08:33:24.340Z,30.09
2017-06-05T08:34:04.703Z,29.71
2017-06-05T08:34:46.430Z,29.21
2017-06-05T08:35:26.931Z,28.64
2017-06-05T08:36:07.641Z,28.55
2017-06-05T08:36:48.052Z,28.16
2017-06-05T08:37:28.505Z,27.48
2017-06-05T08:38:09.717Z,27.39
2017-06-05T08:38:50.169Z,27.29
2017-06-05T08:39:31.681Z,26.71
2017-06-05T08:40:12.128Z,26.51
2017-06-05T08:40:53.494Z,25.92
2017-06-05T08:41:33.932Z,25.93
2017-06-05T08:42:14.426Z,25.74
2017-06-05T08:42:54.763Z,25.37
2017-06-05T08:43:35.228Z,24.78
2017-06-05T08:44:15.575Z,24.68
2017-06-05T08:44:57.084Z,24.21
2017-06-05T08:45:38.333Z,24.01
2017-06-05T08:46:18.727Z,24.01
2017-06-05T08:46:59.165Z,24.02
2017-06-05T08:47:40.333Z,23.93
2017-06-05T08:48:20.772Z,23.72
2017-06-05T08:49:01.205Z,23.44
2017-06-05T08:49:41.586Z,23.34
2017-06-05T08:50:23.218Z,22.36
2017-06-05T08:51:03.700Z,22.44
2017-06-05T08:51:44.160Z,22.26
2017-06-05T08:52:26.039Z,22.17
2017-06-05T08:53:06.505Z,21.87
2017-06-05T08:53:46.957Z,21.87
2017-06-05T08:54:27.592Z,21.98
2017-06-05T08:55:08.024Z,21.28